Saint Stephen, Minnesota
Current Conditions -  °F | °C
As of 1:53 PM on Friday 21 Nov 2014 (Local Time) from KSTC Reporting Station
Clear Clear  
Wind Chill: 15°   Ceiling: Unl
Heat Index: 28°   Visibility: 10mi
Dew Point: 18°   Wind: 18mph
Humidity: 66%   Direction: 180°S
Pressure: 29.96"   Gusts: NA
Location:  45.7°N, 94.27°W
Report Text: KSTC 211953Z 18016KT 10SM CLR M02/M08 A2996 RMK AO2 SLP177 T10221078
Loading
Personal Weather Stations






























Interactive Weather Map New forecast layout! Learn more

10-Day Weather Forecast

Advertisements
Track Severe Weather on mobile